sensor_id;sensor_type;location;lat;lon;timestamp;pressure;altitude;pressure_sealevel;temperature;humidity
55733;BME280;41637;52.364;9.910;2023-03-23T00:00:06;99722.58;;;13.09;65.13
55733;BME280;41637;52.364;9.910;2023-03-23T00:02:32;99730.39;;;13.10;65.50
55733;BME280;41637;52.364;9.910;2023-03-23T00:05:01;99723.81;;;13.07;66.50
55733;BME280;41637;52.364;9.910;2023-03-23T00:07:28;99718.77;;;13.04;67.53
55733;BME280;41637;52.364;9.910;2023-03-23T00:09:55;99723.66;;;12.99;69.01
55733;BME280;41637;52.364;9.910;2023-03-23T00:12:28;99723.14;;;12.91;70.03
55733;BME280;41637;52.364;9.910;2023-03-23T00:15:08;99722.16;;;12.77;71.17
55733;BME280;41637;52.364;9.910;2023-03-23T00:17:34;99721.05;;;12.62;72.60
55733;BME280;41637;52.364;9.910;2023-03-23T00:20:00;99720.95;;;12.46;73.65
55733;BME280;41637;52.364;9.910;2023-03-23T00:22:30;99714.46;;;12.31;74.32
55733;BME280;41637;52.364;9.910;2023-03-23T00:24:56;99717.40;;;12.20;74.86
55733;BME280;41637;52.364;9.910;2023-03-23T00:27:22;99722.61;;;12.16;75.56
55733;BME280;41637;52.364;9.910;2023-03-23T00:29:51;99714.19;;;12.12;76.01
55733;BME280;41637;52.364;9.910;2023-03-23T00:32:21;99706.73;;;12.07;76.66
55733;BME280;41637;52.364;9.910;2023-03-23T00:34:57;99705.96;;;12.02;77.31
55733;BME280;41637;52.364;9.910;2023-03-23T00:37:26;99702.78;;;11.99;77.88
55733;BME280;41637;52.364;9.910;2023-03-23T00:39:52;99700.75;;;11.94;79.14
55733;BME280;41637;52.364;9.910;2023-03-23T00:42:23;99702.63;;;11.85;80.26
55733;BME280;41637;52.364;9.910;2023-03-23T00:44:48;99706.89;;;11.77;80.84
55733;BME280;41637;52.364;9.910;2023-03-23T00:47:15;99699.01;;;11.71;81.79
55733;BME280;41637;52.364;9.910;2023-03-23T00:49:43;99695.09;;;11.66;81.99
55733;BME280;41637;52.364;9.910;2023-03-23T00:52:09;99690.96;;;11.61;82.40
55733;BME280;41637;52.364;9.910;2023-03-23T00:54:35;99685.79;;;11.56;82.73
55733;BME280;41637;52.364;9.910;2023-03-23T00:57:03;99684.73;;;11.55;83.10
55733;BME280;41637;52.364;9.910;2023-03-23T00:59:29;99683.95;;;11.52;83.65
55733;BME280;41637;52.364;9.910;2023-03-23T01:01:54;99686.64;;;11.50;83.83
55733;BME280;41637;52.364;9.910;2023-03-23T01:04:20;99687.87;;;11.49;84.08
55733;BME280;41637;52.364;9.910;2023-03-23T01:06:49;99690.66;;;11.49;84.10
55733;BME280;41637;52.364;9.910;2023-03-23T01:09:16;99685.92;;;11.51;84.67
55733;BME280;41637;52.364;9.910;2023-03-23T01:11:46;99677.58;;;11.51;84.55
55733;BME280;41637;52.364;9.910;2023-03-23T01:14:14;99674.59;;;11.51;85.13
55733;BME280;41637;52.364;9.910;2023-03-23T01:16:40;99675.25;;;11.50;85.69
55733;BME280;41637;52.364;9.910;2023-03-23T01:19:06;99686.16;;;11.48;85.86
55733;BME280;41637;52.364;9.910;2023-03-23T01:21:32;99678.92;;;11.47;85.85
55733;BME280;41637;52.364;9.910;2023-03-23T01:23:57;99668.06;;;11.49;85.74
55733;BME280;41637;52.364;9.910;2023-03-23T01:26:25;99665.23;;;11.50;85.49
55733;BME280;41637;52.364;9.910;2023-03-23T01:28:52;99662.01;;;11.51;85.69
55733;BME280;41637;52.364;9.910;2023-03-23T01:31:20;99662.98;;;11.53;85.66
55733;BME280;41637;52.364;9.910;2023-03-23T01:33:46;99661.10;;;11.55;85.59
55733;BME280;41637;52.364;9.910;2023-03-23T01:36:15;99654.14;;;11.56;85.46
55733;BME280;41637;52.364;9.910;2023-03-23T01:38:42;99651.91;;;11.55;85.29
55733;BME280;41637;52.364;9.910;2023-03-23T01:41:08;99652.88;;;11.57;85.58
55733;BME280;41637;52.364;9.910;2023-03-23T01:43:34;99651.49;;;11.57;85.35
55733;BME280;41637;52.364;9.910;2023-03-23T01:45:59;99650.27;;;11.57;85.56
55733;BME280;41637;52.364;9.910;2023-03-23T01:48:34;99641.92;;;11.57;85.61
55733;BME280;41637;52.364;9.910;2023-03-23T01:51:08;99644.30;;;11.56;85.84
55733;BME280;41637;52.364;9.910;2023-03-23T01:53:40;99641.04;;;11.53;86.21
55733;BME280;41637;52.364;9.910;2023-03-23T01:56:08;99638.39;;;11.52;86.33
55733;BME280;41637;52.364;9.910;2023-03-23T01:58:37;99633.38;;;11.49;86.85
55733;BME280;41637;52.364;9.910;2023-03-23T02:01:06;99638.64;;;11.45;87.25
55733;BME280;41637;52.364;9.910;2023-03-23T02:03:34;99641.48;;;11.39;87.84
55733;BME280;41637;52.364;9.910;2023-03-23T02:06:01;99639.47;;;11.36;88.33
55733;BME280;41637;52.364;9.910;2023-03-23T02:08:28;99636.98;;;11.29;88.95
55733;BME280;41637;52.364;9.910;2023-03-23T02:10:55;99633.68;;;11.25;89.31
55733;BME280;41637;52.364;9.910;2023-03-23T02:13:20;99630.63;;;11.20;89.43
55733;BME280;41637;52.364;9.910;2023-03-23T02:16:04;99628.16;;;11.16;90.09
55733;BME280;41637;52.364;9.910;2023-03-23T02:36:58;99607.52;;;11.09;90.69
55733;BME280;41637;52.364;9.910;2023-03-23T02:39:30;99611.34;;;11.08;90.83
55733;BME280;41637;52.364;9.910;2023-03-23T02:42:05;99605.88;;;11.08;90.78
55733;BME280;41637;52.364;9.910;2023-03-23T02:44:32;99606.69;;;11.07;90.96
55733;BME280;41637;52.364;9.910;2023-03-23T02:47:00;99599.39;;;11.05;90.82
55733;BME280;41637;52.364;9.910;2023-03-23T02:49:31;99589.27;;;11.05;90.28
55733;BME280;41637;52.364;9.910;2023-03-23T02:51:59;99578.48;;;11.06;90.31
55733;BME280;41637;52.364;9.910;2023-03-23T02:54:25;99582.04;;;11.05;89.98
55733;BME280;41637;52.364;9.910;2023-03-23T02:56:53;99576.24;;;11.07;89.69
55733;BME280;41637;52.364;9.910;2023-03-23T02:59:20;99591.96;;;11.07;89.43
55733;BME280;41637;52.364;9.910;2023-03-23T03:01:51;99596.52;;;11.09;89.25
55733;BME280;41637;52.364;9.910;2023-03-23T03:04:19;99603.52;;;11.12;88.99
55733;BME280;41637;52.364;9.910;2023-03-23T03:09:55;99589.34;;;11.18;88.76
55733;BME280;41637;52.364;9.910;2023-03-23T03:13:02;99582.40;;;11.19;88.71
55733;BME280;41637;52.364;9.910;2023-03-23T03:15:29;99575.81;;;11.22;88.86
55733;BME280;41637;52.364;9.910;2023-03-23T03:18:12;99565.23;;;11.23;88.69
55733;BME280;41637;52.364;9.910;2023-03-23T03:20:45;99563.23;;;11.23;89.00
55733;BME280;41637;52.364;9.910;2023-03-23T03:23:14;99573.94;;;11.23;89.28
55733;BME280;41637;52.364;9.910;2023-03-23T03:25:41;99576.66;;;11.24;89.50
55733;BME280;41637;52.364;9.910;2023-03-23T03:28:15;99584.71;;;11.24;89.95
55733;BME280;41637;52.364;9.910;2023-03-23T03:30:43;99585.70;;;11.22;90.33
55733;BME280;41637;52.364;9.910;2023-03-23T03:33:11;99589.46;;;11.19;90.64
55733;BME280;41637;52.364;9.910;2023-03-23T03:35:40;99588.04;;;11.16;91.25
55733;BME280;41637;52.364;9.910;2023-03-23T03:38:10;99578.55;;;11.14;92.17
55733;BME280;41637;52.364;9.910;2023-03-23T03:40:36;99582.70;;;11.08;93.11
55733;BME280;41637;52.364;9.910;2023-03-23T03:43:02;99580.19;;;11.02;93.76
55733;BME280;41637;52.364;9.910;2023-03-23T03:45:28;99568.94;;;10.96;94.33
55733;BME280;41637;52.364;9.910;2023-03-23T03:47:53;99561.88;;;10.93;94.87
55733;BME280;41637;52.364;9.910;2023-03-23T03:50:19;99574.34;;;10.89;95.17
55733;BME280;41637;52.364;9.910;2023-03-23T03:52:45;99570.30;;;10.85;95.43
55733;BME280;41637;52.364;9.910;2023-03-23T03:55:11;99558.33;;;10.86;94.89
55733;BME280;41637;52.364;9.910;2023-03-23T03:57:36;99562.98;;;10.87;95.12
55733;BME280;41637;52.364;9.910;2023-03-23T04:00:04;99562.49;;;10.87;94.95
55733;BME280;41637;52.364;9.910;2023-03-23T04:02:44;99572.98;;;10.89;94.24
55733;BME280;41637;52.364;9.910;2023-03-23T04:05:12;99569.48;;;10.91;94.22
55733;BME280;41637;52.364;9.910;2023-03-23T04:07:38;99562.85;;;10.93;94.37
55733;BME280;41637;52.364;9.910;2023-03-23T04:10:05;99549.86;;;10.94;93.92
55733;BME280;41637;52.364;9.910;2023-03-23T04:12:32;99556.36;;;10.95;93.77
55733;BME280;41637;52.364;9.910;2023-03-23T04:14:58;99550.77;;;10.96;93.72
55733;BME280;41637;52.364;9.910;2023-03-23T04:17:23;99552.31;;;10.98;93.17
55733;BME280;41637;52.364;9.910;2023-03-23T04:19:52;99555.98;;;10.99;93.15
55733;BME280;41637;52.364;9.910;2023-03-23T04:22:18;99555.34;;;11.02;93.23
55733;BME280;41637;52.364;9.910;2023-03-23T04:24:43;99559.50;;;11.02;93.22
55733;BME280;41637;52.364;9.910;2023-03-23T04:27:09;99561.30;;;11.02;93.40
55733;BME280;41637;52.364;9.910;2023-03-23T04:29:35;99562.15;;;11.02;93.38
55733;BME280;41637;52.364;9.910;2023-03-23T04:32:00;99563.41;;;11.02;92.87
55733;BME280;41637;52.364;9.910;2023-03-23T04:34:27;99558.06;;;11.02;92.90
55733;BME280;41637;52.364;9.910;2023-03-23T04:36:52;99550.88;;;11.02;92.53
55733;BME280;41637;52.364;9.910;2023-03-23T04:39:18;99549.14;;;11.02;92.13
55733;BME280;41637;52.364;9.910;2023-03-23T04:41:44;99543.41;;;11.02;91.87
55733;BME280;41637;52.364;9.910;2023-03-23T05:22:14;99538.82;;;11.16;87.52
55733;BME280;41637;52.364;9.910;2023-03-23T05:24:40;99546.23;;;11.12;87.48
55733;BME280;41637;52.364;9.910;2023-03-23T05:27:08;99544.14;;;11.10;87.54
55733;BME280;41637;52.364;9.910;2023-03-23T05:29:35;99543.98;;;11.10;87.36
55733;BME280;41637;52.364;9.910;2023-03-23T05:32:04;99534.83;;;11.13;87.46
55733;BME280;41637;52.364;9.910;2023-03-23T05:34:31;99534.05;;;11.12;87.45
55733;BME280;41637;52.364;9.910;2023-03-23T05:36:58;99536.98;;;11.12;87.35
55733;BME280;41637;52.364;9.910;2023-03-23T05:39:25;99545.29;;;11.11;87.21
55733;BME280;41637;52.364;9.910;2023-03-23T05:41:51;99542.17;;;11.13;87.09
55733;BME280;41637;52.364;9.910;2023-03-23T05:44:18;99536.30;;;11.15;86.93
55733;BME280;41637;52.364;9.910;2023-03-23T05:46:44;99537.32;;;11.16;87.16
55733;BME280;41637;52.364;9.910;2023-03-23T05:49:10;99531.67;;;11.19;86.88
55733;BME280;41637;52.364;9.910;2023-03-23T05:51:36;99534.77;;;11.21;86.83
55733;BME280;41637;52.364;9.910;2023-03-23T05:54:02;99535.58;;;11.24;86.32
55733;BME280;41637;52.364;9.910;2023-03-23T05:56:29;99539.65;;;11.26;86.03
55733;BME280;41637;52.364;9.910;2023-03-23T05:58:57;99541.29;;;11.27;85.83
55733;BME280;41637;52.364;9.910;2023-03-23T06:01:24;99536.42;;;11.29;85.84
55733;BME280;41637;52.364;9.910;2023-03-23T06:03:50;99540.84;;;11.30;85.11
55733;BME280;41637;52.364;9.910;2023-03-23T06:06:20;99548.59;;;11.31;84.77
55733;BME280;41637;52.364;9.910;2023-03-23T06:08:45;99552.23;;;11.34;84.33
55733;BME280;41637;52.364;9.910;2023-03-23T06:11:11;99547.84;;;11.39;84.49
55733;BME280;41637;52.364;9.910;2023-03-23T06:13:37;99551.67;;;11.42;84.26
55733;BME280;41637;52.364;9.910;2023-03-23T06:16:03;99547.75;;;11.45;83.81
55733;BME280;41637;52.364;9.910;2023-03-23T06:18:29;99543.85;;;11.51;83.59
55733;BME280;41637;52.364;9.910;2023-03-23T06:20:59;99545.05;;;11.55;83.37
55733;BME280;41637;52.364;9.910;2023-03-23T06:23:26;99541.00;;;11.58;83.22
55733;BME280;41637;52.364;9.910;2023-03-23T06:25:58;99540.05;;;11.63;83.08
55733;BME280;41637;52.364;9.910;2023-03-23T06:28:25;99538.10;;;11.67;82.71
55733;BME280;41637;52.364;9.910;2023-03-23T06:30:50;99538.02;;;11.68;82.71
55733;BME280;41637;52.364;9.910;2023-03-23T06:33:17;99534.33;;;11.71;82.46
55733;BME280;41637;52.364;9.910;2023-03-23T06:35:43;99545.67;;;11.72;82.36
55733;BME280;41637;52.364;9.910;2023-03-23T06:38:09;99537.17;;;11.74;82.37
55733;BME280;41637;52.364;9.910;2023-03-23T06:40:35;99539.81;;;11.80;82.23
55733;BME280;41637;52.364;9.910;2023-03-23T06:43:04;99537.47;;;11.83;82.19
55733;BME280;41637;52.364;9.910;2023-03-23T06:45:30;99544.52;;;11.86;81.99
55733;BME280;41637;52.364;9.910;2023-03-23T06:47:56;99552.26;;;11.90;81.69
55733;BME280;41637;52.364;9.910;2023-03-23T06:50:22;99554.73;;;11.98;81.62
55733;BME280;41637;52.364;9.910;2023-03-23T06:52:49;99555.88;;;12.04;81.50
55733;BME280;41637;52.364;9.910;2023-03-23T06:55:16;99562.32;;;12.10;81.22
55733;BME280;41637;52.364;9.910;2023-03-23T06:57:42;99569.45;;;12.12;80.98
55733;BME280;41637;52.364;9.910;2023-03-23T07:00:09;99558.33;;;12.20;80.96
55733;BME280;41637;52.364;9.910;2023-03-23T07:02:43;99562.91;;;12.21;80.80
55733;BME280;41637;52.364;9.910;2023-03-23T07:05:11;99571.73;;;12.21;80.53
55733;BME280;41637;52.364;9.910;2023-03-23T07:07:37;99570.73;;;12.18;80.61
55733;BME280;41637;52.364;9.910;2023-03-23T07:10:05;99575.82;;;12.16;80.94
55733;BME280;41637;52.364;9.910;2023-03-23T07:12:31;99576.41;;;12.12;80.74
55733;BME280;41637;52.364;9.910;2023-03-23T07:14:58;99577.48;;;12.10;81.13
55733;BME280;41637;52.364;9.910;2023-03-23T07:17:24;99570.39;;;12.06;81.16
55733;BME280;41637;52.364;9.910;2023-03-23T07:19:50;99575.54;;;12.06;81.15
55733;BME280;41637;52.364;9.910;2023-03-23T07:22:15;99569.33;;;12.08;81.10
55733;BME280;41637;52.364;9.910;2023-03-23T07:24:41;99577.77;;;12.09;81.30
55733;BME280;41637;52.364;9.910;2023-03-23T07:27:07;99577.55;;;12.14;81.10
55733;BME280;41637;52.364;9.910;2023-03-23T07:29:33;99570.85;;;12.20;81.16
55733;BME280;41637;52.364;9.910;2023-03-23T07:32:01;99576.67;;;12.24;80.68
55733;BME280;41637;52.364;9.910;2023-03-23T07:34:27;99573.76;;;12.32;80.59
55733;BME280;41637;52.364;9.910;2023-03-23T07:36:53;99576.81;;;12.40;80.31
55733;BME280;41637;52.364;9.910;2023-03-23T07:39:19;99576.09;;;12.52;80.22
55733;BME280;41637;52.364;9.910;2023-03-23T07:41:45;99569.08;;;12.60;79.67
55733;BME280;41637;52.364;9.910;2023-03-23T07:44:13;99572.30;;;12.68;79.19
55733;BME280;41637;52.364;9.910;2023-03-23T07:46:39;99580.04;;;12.78;78.58
55733;BME280;41637;52.364;9.910;2023-03-23T07:49:05;99578.61;;;12.82;78.05
55733;BME280;41637;52.364;9.910;2023-03-23T07:51:31;99573.84;;;12.91;77.77
55733;BME280;41637;52.364;9.910;2023-03-23T07:53:58;99572.99;;;12.98;77.25
55733;BME280;41637;52.364;9.910;2023-03-23T07:56:24;99573.41;;;13.06;76.86
55733;BME280;41637;52.364;9.910;2023-03-23T07:58:50;99563.60;;;13.22;76.83
55733;BME280;41637;52.364;9.910;2023-03-23T08:01:19;99572.77;;;13.35;76.06
55733;BME280;41637;52.364;9.910;2023-03-23T08:03:45;99569.83;;;13.45;75.52
55733;BME280;41637;52.364;9.910;2023-03-23T08:06:12;99573.52;;;13.51;74.90
55733;BME280;41637;52.364;9.910;2023-03-23T08:08:38;99576.90;;;13.58;73.91
55733;BME280;41637;52.364;9.910;2023-03-23T08:11:05;99585.79;;;13.67;73.81
55733;BME280;41637;52.364;9.910;2023-03-23T08:13:31;99593.78;;;13.74;72.85
55733;BME280;41637;52.364;9.910;2023-03-23T08:15:59;99586.60;;;13.78;72.58
55733;BME280;41637;52.364;9.910;2023-03-23T08:18:25;99577.16;;;13.85;72.65
55733;BME280;41637;52.364;9.910;2023-03-23T08:20:51;99585.62;;;13.85;71.63
55733;BME280;41637;52.364;9.910;2023-03-23T08:23:19;99581.05;;;13.89;72.05
55733;BME280;41637;52.364;9.910;2023-03-23T08:25:45;99581.88;;;14.00;72.48
55733;BME280;41637;52.364;9.910;2023-03-23T08:28:11;99586.38;;;14.10;71.70
55733;BME280;41637;52.364;9.910;2023-03-23T08:30:39;99589.12;;;14.07;70.59
55733;BME280;41637;52.364;9.910;2023-03-23T08:33:06;99588.36;;;14.09;70.78
55733;BME280;41637;52.364;9.910;2023-03-23T08:35:32;99603.45;;;14.12;70.88
55733;BME280;41637;52.364;9.910;2023-03-23T08:37:58;99604.25;;;14.14;70.53
55733;BME280;41637;52.364;9.910;2023-03-23T08:40:25;99594.79;;;14.16;70.66
55733;BME280;41637;52.364;9.910;2023-03-23T08:42:52;99596.98;;;14.16;70.05
55733;BME280;41637;52.364;9.910;2023-03-23T08:45:21;99595.17;;;14.17;70.20
55733;BME280;41637;52.364;9.910;2023-03-23T08:47:48;99595.11;;;14.20;70.42
55733;BME280;41637;52.364;9.910;2023-03-23T08:50:21;99592.58;;;14.21;70.46
55733;BME280;41637;52.364;9.910;2023-03-23T08:52:48;99593.51;;;14.26;70.36
55733;BME280;41637;52.364;9.910;2023-03-23T08:55:15;99602.65;;;14.29;69.92
55733;BME280;41637;52.364;9.910;2023-03-23T08:57:43;99604.73;;;14.31;70.04
55733;BME280;41637;52.364;9.910;2023-03-23T09:00:14;99599.35;;;14.27;69.96
55733;BME280;41637;52.364;9.910;2023-03-23T09:02:47;99602.73;;;14.23;69.99
55733;BME280;41637;52.364;9.910;2023-03-23T09:05:15;99611.60;;;14.20;69.96
55733;BME280;41637;52.364;9.910;2023-03-23T09:07:43;99612.39;;;14.19;70.36
55733;BME280;41637;52.364;9.910;2023-03-23T09:10:09;99614.45;;;14.24;70.70
55733;BME280;41637;52.364;9.910;2023-03-23T09:12:36;99618.31;;;14.24;70.53
55733;BME280;41637;52.364;9.910;2023-03-23T09:15:04;99623.13;;;14.19;70.79
55733;BME280;41637;52.364;9.910;2023-03-23T09:17:39;99624.86;;;14.12;70.46
55733;BME280;41637;52.364;9.910;2023-03-23T09:20:07;99620.56;;;14.10;70.87
55733;BME280;41637;52.364;9.910;2023-03-23T09:22:40;99622.42;;;14.04;70.72
55733;BME280;41637;52.364;9.910;2023-03-23T09:25:07;99621.09;;;14.02;70.99
55733;BME280;41637;52.364;9.910;2023-03-23T09:27:34;99628.48;;;13.96;70.63
55733;BME280;41637;52.364;9.910;2023-03-23T09:30:04;99634.30;;;13.93;71.12
55733;BME280;41637;52.364;9.910;2023-03-23T09:32:32;99636.73;;;13.91;71.54
55733;BME280;41637;52.364;9.910;2023-03-23T09:34:59;99633.01;;;13.91;71.80
55733;BME280;41637;52.364;9.910;2023-03-23T09:37:25;99629.73;;;13.91;71.59
55733;BME280;41637;52.364;9.910;2023-03-23T09:39:53;99635.15;;;13.93;71.72
55733;BME280;41637;52.364;9.910;2023-03-23T09:42:55;99633.59;;;14.00;71.68
55733;BME280;41637;52.364;9.910;2023-03-23T09:45:37;99637.12;;;14.00;71.15
55733;BME280;41637;52.364;9.910;2023-03-23T09:48:23;99641.35;;;13.99;71.03
55733;BME280;41637;52.364;9.910;2023-03-23T09:51:00;99646.30;;;13.94;70.39
55733;BME280;41637;52.364;9.910;2023-03-23T09:53:33;99650.04;;;13.89;70.50
55733;BME280;41637;52.364;9.910;2023-03-23T09:56:02;99653.38;;;13.87;71.01
55733;BME280;41637;52.364;9.910;2023-03-23T09:58:34;99653.51;;;13.83;70.89
55733;BME280;41637;52.364;9.910;2023-03-23T10:01:08;99652.79;;;13.81;70.97
55733;BME280;41637;52.364;9.910;2023-03-23T10:03:40;99654.02;;;13.74;70.76
55733;BME280;41637;52.364;9.910;2023-03-23T10:06:16;99659.02;;;13.72;71.02
55733;BME280;41637;52.364;9.910;2023-03-23T10:08:52;99653.69;;;13.66;71.64
55733;BME280;41637;52.364;9.910;2023-03-23T10:11:38;99658.27;;;13.64;71.69
55733;BME280;41637;52.364;9.910;2023-03-23T10:16:38;99664.77;;;13.57;71.85
55733;BME280;41637;52.364;9.910;2023-03-23T10:19:20;99664.83;;;13.56;71.90
55733;BME280;41637;52.364;9.910;2023-03-23T10:21:50;99672.83;;;13.56;72.20
55733;BME280;41637;52.364;9.910;2023-03-23T10:24:23;99673.19;;;13.55;72.07
55733;BME280;41637;52.364;9.910;2023-03-23T10:30:15;99676.52;;;13.65;71.22
55733;BME280;41637;52.364;9.910;2023-03-23T10:35:24;99685.67;;;13.82;69.77
55733;BME280;41637;52.364;9.910;2023-03-23T10:37:59;99690.92;;;13.89;69.04
55733;BME280;41637;52.364;9.910;2023-03-23T10:40:28;99682.89;;;14.00;68.68
55733;BME280;41637;52.364;9.910;2023-03-23T10:42:55;99678.48;;;14.10;68.36
55733;BME280;41637;52.364;9.910;2023-03-23T10:45:24;99681.65;;;14.20;68.15
55733;BME280;41637;52.364;9.910;2023-03-23T10:50:27;99695.02;;;14.41;67.04
55733;BME280;41637;52.364;9.910;2023-03-23T10:52:57;99685.77;;;14.56;66.42
55733;BME280;41637;52.364;9.910;2023-03-23T10:55:23;99691.40;;;14.71;66.16
55733;BME280;41637;52.364;9.910;2023-03-23T10:58:07;99678.11;;;14.91;65.15
55733;BME280;41637;52.364;9.910;2023-03-23T11:00:44;99682.73;;;15.13;64.16
55733;BME280;41637;52.364;9.910;2023-03-23T11:05:54;99686.78;;;15.51;62.69
55733;BME280;41637;52.364;9.910;2023-03-23T11:08:28;99682.05;;;15.84;61.93
55733;BME280;41637;52.364;9.910;2023-03-23T11:10:58;99681.07;;;16.11;60.67
55733;BME280;41637;52.364;9.910;2023-03-23T11:13:32;99687.77;;;16.39;60.18
55733;BME280;41637;52.364;9.910;2023-03-23T11:15:58;99681.46;;;16.53;58.66
55733;BME280;41637;52.364;9.910;2023-03-23T11:18:26;99681.39;;;16.66;57.74
55733;BME280;41637;52.364;9.910;2023-03-23T11:20:58;99671.43;;;16.72;57.77
55733;BME280;41637;52.364;9.910;2023-03-23T11:23:27;99671.52;;;16.91;57.92
55733;BME280;41637;52.364;9.910;2023-03-23T11:25:56;99674.50;;;16.97;56.66
55733;BME280;41637;52.364;9.910;2023-03-23T11:28:29;99673.80;;;17.02;56.22
55733;BME280;41637;52.364;9.910;2023-03-23T11:30:58;99675.80;;;17.04;55.48
55733;BME280;41637;52.364;9.910;2023-03-23T11:33:28;99676.10;;;16.93;55.41
55733;BME280;41637;52.364;9.910;2023-03-23T11:35:54;99675.49;;;16.89;55.39
55733;BME280;41637;52.364;9.910;2023-03-23T11:38:22;99681.47;;;16.82;55.60
55733;BME280;41637;52.364;9.910;2023-03-23T11:40:51;99671.34;;;16.85;56.14
55733;BME280;41637;52.364;9.910;2023-03-23T11:43:20;99670.25;;;16.95;55.63
55733;BME280;41637;52.364;9.910;2023-03-23T11:48:42;99668.77;;;16.83;54.44
55733;BME280;41637;52.364;9.910;2023-03-23T11:51:13;99665.02;;;16.86;55.30
55733;BME280;41637;52.364;9.910;2023-03-23T11:54:09;99677.22;;;16.78;54.53
55733;BME280;41637;52.364;9.910;2023-03-23T11:56:42;99678.44;;;16.49;55.04
55733;BME280;41637;52.364;9.910;2023-03-23T11:59:34;99674.45;;;16.34;55.93
55733;BME280;41637;52.364;9.910;2023-03-23T12:05:19;99670.23;;;16.18;56.63
55733;BME280;41637;52.364;9.910;2023-03-23T12:07:58;99665.42;;;16.18;56.13
55733;BME280;41637;52.364;9.910;2023-03-23T12:10:58;99667.82;;;16.09;55.85
55733;BME280;41637;52.364;9.910;2023-03-23T12:16:23;99670.73;;;15.90;56.38
55733;BME280;41637;52.364;9.910;2023-03-23T12:19:16;99666.98;;;15.75;57.26
55733;BME280;41637;52.364;9.910;2023-03-23T12:27:00;99739.82;;;14.12;74.39
55733;BME280;41637;52.364;9.910;2023-03-23T12:29:48;99742.86;;;13.07;80.26
55733;BME280;41637;52.364;9.910;2023-03-23T12:32:56;99752.73;;;12.39;83.87
55733;BME280;41637;52.364;9.910;2023-03-23T12:41:05;99729.86;;;11.71;88.56
55733;BME280;41637;52.364;9.910;2023-03-23T12:43:48;99731.98;;;11.68;89.36
55733;BME280;41637;52.364;9.910;2023-03-23T12:52:00;99740.40;;;11.79;89.80
55733;BME280;41637;52.364;9.910;2023-03-23T12:54:39;99746.50;;;11.72;89.46
55733;BME280;41637;52.364;9.910;2023-03-23T12:57:13;99756.95;;;11.71;90.06
55733;BME280;41637;52.364;9.910;2023-03-23T12:59:42;99750.22;;;11.70;90.46
55733;BME280;41637;52.364;9.910;2023-03-23T13:02:14;99752.23;;;11.66;89.08
55733;BME280;41637;52.364;9.910;2023-03-23T13:04:44;99759.95;;;11.69;86.45
55733;BME280;41637;52.364;9.910;2023-03-23T13:07:16;99758.77;;;11.75;85.37
55733;BME280;41637;52.364;9.910;2023-03-23T13:09:48;99754.02;;;11.81;83.39
55733;BME280;41637;52.364;9.910;2023-03-23T13:12:16;99761.04;;;11.82;81.44
55733;BME280;41637;52.364;9.910;2023-03-23T13:15:14;99759.73;;;11.80;80.99
55733;BME280;41637;52.364;9.910;2023-03-23T13:17:52;99759.13;;;11.78;80.88
55733;BME280;41637;52.364;9.910;2023-03-23T13:26:09;99764.98;;;11.88;80.21
55733;BME280;41637;52.364;9.910;2023-03-23T13:29:08;99769.61;;;11.88;78.28
55733;BME280;41637;52.364;9.910;2023-03-23T13:31:36;99763.25;;;11.88;78.63
55733;BME280;41637;52.364;9.910;2023-03-23T13:34:05;99766.98;;;11.89;77.36
55733;BME280;41637;52.364;9.910;2023-03-23T13:36:41;99762.20;;;11.93;76.51
55733;BME280;41637;52.364;9.910;2023-03-23T13:39:19;99762.60;;;11.96;75.65
55733;BME280;41637;52.364;9.910;2023-03-23T13:41:48;99757.41;;;12.02;76.36
55733;BME280;41637;52.364;9.910;2023-03-23T13:44:23;99762.48;;;12.05;76.02
55733;BME280;41637;52.364;9.910;2023-03-23T13:55:20;99778.19;;;12.21;74.36
55733;BME280;41637;52.364;9.910;2023-03-23T14:05:39;99777.55;;;12.33;74.13
55733;BME280;41637;52.364;9.910;2023-03-23T14:11:02;99768.13;;;12.32;74.87
55733;BME280;41637;52.364;9.910;2023-03-23T14:18:51;99775.38;;;12.15;76.77
55733;BME280;41637;52.364;9.910;2023-03-23T14:21:25;99764.94;;;12.16;77.81
55733;BME280;41637;52.364;9.910;2023-03-23T14:23:51;99764.01;;;12.13;78.51
55733;BME280;41637;52.364;9.910;2023-03-23T14:26:20;99765.91;;;12.06;80.28
55733;BME280;41637;52.364;9.910;2023-03-23T14:28:50;99771.84;;;12.07;81.16
55733;BME280;41637;52.364;9.910;2023-03-23T14:31:27;99761.41;;;12.22;81.80
55733;BME280;41637;52.364;9.910;2023-03-23T14:33:55;99767.31;;;12.20;81.35
55733;BME280;41637;52.364;9.910;2023-03-23T14:36:27;99761.59;;;12.19;81.93
55733;BME280;41637;52.364;9.910;2023-03-23T14:41:38;99766.33;;;12.17;83.48
55733;BME280;41637;52.364;9.910;2023-03-23T14:44:07;99763.12;;;12.10;84.22
55733;BME280;41637;52.364;9.910;2023-03-23T14:46:35;99774.30;;;12.02;84.85
55733;BME280;41637;52.364;9.910;2023-03-23T14:49:03;99783.50;;;11.98;85.73
55733;BME280;41637;52.364;9.910;2023-03-23T14:51:30;99786.86;;;11.95;86.41
55733;BME280;41637;52.364;9.910;2023-03-23T14:53:59;99781.88;;;11.97;86.79
55733;BME280;41637;52.364;9.910;2023-03-23T14:56:33;99788.25;;;11.98;86.40
55733;BME280;41637;52.364;9.910;2023-03-23T14:59:04;99789.23;;;11.95;86.23
55733;BME280;41637;52.364;9.910;2023-03-23T15:01:31;99793.25;;;11.91;86.14
55733;BME280;41637;52.364;9.910;2023-03-23T15:04:06;99793.30;;;11.87;86.23
55733;BME280;41637;52.364;9.910;2023-03-23T15:06:35;99790.59;;;11.86;86.59
55733;BME280;41637;52.364;9.910;2023-03-23T15:09:05;99801.60;;;11.80;86.48
55733;BME280;41637;52.364;9.910;2023-03-23T15:11:37;99798.45;;;11.81;86.77
55733;BME280;41637;52.364;9.910;2023-03-23T15:14:14;99789.29;;;11.82;86.86
55733;BME280;41637;52.364;9.910;2023-03-23T15:16:45;99793.27;;;11.87;86.58
55733;BME280;41637;52.364;9.910;2023-03-23T15:19:17;99791.67;;;11.88;85.74
55733;BME280;41637;52.364;9.910;2023-03-23T15:22:16;99791.67;;;11.88;85.69
55733;BME280;41637;52.364;9.910;2023-03-23T15:24:44;99790.31;;;11.87;85.90